Berovo, Macedonia
Current Conditions -  °F | °C
As of 9:30 PM on Saturday 25 Oct 2014 (Local Time) from LWSK Reporting Station
Broken Clouds Broken Clouds  
Wind Chill: 41°   Ceiling: 4000
Heat Index: 45°   Visibility: 6mi
Dew Point: 32°   Wind: 6mph
Humidity: 61%   Direction: 320°NW
Pressure: 30.15"   Gusts: NA
Location:  41.72°N, 22.86°E
Report Text: LWSK 251930Z 32005KT 290V360 9999 BKN040 07/00 Q1021 NOSIG
Loading
Personal Weather Stations






























Interactive Weather Map New forecast layout! Learn more

10-Day Weather Forecast

Advertisements
Track Severe Weather on mobile